Prescott, Washington
Current Conditions -  °F | °C
As of 4:53 AM on Thursday 23 Oct 2014 (Local Time) from KALW Reporting Station
Light Rain Light Rain  
Wind Chill: 56°   Ceiling: 5500
Heat Index: 56°   Visibility: 5mi
Dew Point: 53°   Wind: 6mph
Humidity: 90%   Direction: 100°E
Pressure: 29.8"   Gusts: NA
Location:  46.3°N, 118.31°W
Report Text: KALW 231153Z AUTO 10005KT 5SM -RA BR OVC055 13/12 A2980 RMK AO2 SLP087 P0003 6//// 7//// T01330117 10211 20133 $
Loading
Personal Weather Stations






























Interactive Weather Map
Tropical Storm Tracking
New forecast layout! Learn more

10-Day Weather Forecast

Advertisements
Track Severe Weather on mobile